Test XHTML 1.0 Strict Page for WU-History Testing
Histórico de la Estación METEOCORUÑA
Diario Datos del Marzo 15, 2018 Unidades:  Metrico    Inglés   Ambos
« Prev Dia
Sig Dia »
Diario Semanal Mensual Anual Rango
  Max: Min: Media:
Temp: -17.8 °C -13.9 °C -12.6 °C
Rocío: -17.8 °C -58.5 °C -14.4 °C
Humedad: Humidity % 69 % 83 %
Vel. viento: 0 km/h 12.9 km/h 41.5 km/h
Racha: 0 km/h - -
Viento:- - WSW
Presión: 0 hPa -114650 hPa -
Lluvia: 0 mm    
Historical Graphs
 
 
Busqueda de Marzo 15, 2018
Hora Temp Rocío Presión Viento Vel. viento Racha Humedad Ratio lluvia (/hora) Radiación
-17.8 °C -17.8 °C 0 hPa Calm     Humidity % 0 mm SolarRadiationWatts/m^2 W/m2
00:02 -12.8 °C -14.4 °C 33582.3 hPa WSW 57 km/h 69.8 km/h 82 % 0 mm 0 W/m2
00:12 -12.8 °C -58.5 °C -114650 hPa SSW 64.7 km/h 103.6 km/h 82 % 0 mm 0 W/m2
00:17 -12.9 °C -14.4 °C 33582.3 hPa WSW 54.4 km/h 72.6 km/h 83 % 0 mm 0 W/m2
00:22 -12.9 °C -14.4 °C 33582.3 hPa WSW 49.2 km/h 75.2 km/h 83 % 0 mm 0 W/m2
00:27 -12.9 °C -14.4 °C 33582.3 hPa SW 44.1 km/h 57 km/h 83 % 0 mm 0 W/m2
00:42 -12.9 °C -14.6 °C 33568.8 hPa WSW 44.1 km/h 69.8 km/h 82 % 0 mm 0 W/m2
00:47 -12.9 °C -14.5 °C 33568.8 hPa WSW 41.4 km/h 67.3 km/h 82 % 0 mm 0 W/m2
00:57 -12.9 °C -14.5 °C 33568.8 hPa WSW 44.1 km/h 72.6 km/h 82 % 0 mm 0 W/m2
01:03 -12.8 °C -14.4 °C 33568.8 hPa SW 41.4 km/h 62.1 km/h 82 % 0 mm 0 W/m2
01:23 -12.7 °C -14.3 °C 33568.8 hPa SW 38.8 km/h 72.6 km/h 82 % 0 mm 0 W/m2
01:28 -12.7 °C -14.3 °C 33568.8 hPa WSW 44.1 km/h 57 km/h 82 % 0 mm 0 W/m2
02:19 -12.6 °C -58.5 °C -114650 hPa SSE 54.4 km/h 54.4 km/h 80 % 0 mm 0 W/m2
04:04 -12.3 °C -14.2 °C 33558.6 hPa WSW 49.2 km/h 95.8 km/h 80 % 0 mm 0 W/m2
04:09 -12.3 °C -14.2 °C 33558.6 hPa SW 51.8 km/h 67.3 km/h 80 % 0 mm 0 W/m2
04:14 -12.3 °C -14.1 °C 33558.6 hPa WSW 51.8 km/h 93.2 km/h 80 % 0 mm 0 W/m2
04:19 -12.4 °C -14.1 °C 33558.6 hPa WSW 49.2 km/h 80.3 km/h 81 % 0 mm 0 W/m2
04:24 -12.4 °C -14.1 °C 33558.6 hPa WSW 49.2 km/h 82.9 km/h 82 % 0 mm 0 W/m2
04:25 -12.4 °C -14.1 °C 33558.6 hPa WSW 49.2 km/h 82.9 km/h 82 % 0 mm 0 W/m2
04:30 -12.6 °C -14.1 °C 33558.6 hPa WSW 51.8 km/h 77.7 km/h 83 % 0 mm 0 W/m2
04:35 -12.6 °C -14.1 °C 33558.6 hPa WSW 51.8 km/h 77.7 km/h 84 % 0 mm 0 W/m2
04:40 -12.6 °C -14.1 °C 33545.1 hPa WSW 49.2 km/h 64.7 km/h 84 % 0 mm 0 W/m2
04:45 -12.6 °C -13.9 °C 33558.6 hPa SW 46.7 km/h 67.3 km/h 85 % 0 mm 0 W/m2
04:50 -12.6 °C -13.9 °C 33545.1 hPa WSW 44.1 km/h 67.3 km/h 85 % 0 mm 0 W/m2
04:55 -12.6 °C -13.9 °C 33545.1 hPa SW 44.1 km/h 64.7 km/h 85 % 0 mm 0 W/m2
05:00 -12.6 °C -13.9 °C 33558.6 hPa WSW 44.1 km/h 69.8 km/h 85 % 0 mm 0 W/m2
05:05 -12.6 °C -13.9 °C 33545.1 hPa WSW 44.1 km/h 72.6 km/h 85 % 0 mm 0 W/m2
05:10 -12.5 °C -13.8 °C 33558.6 hPa WSW 44.1 km/h 67.3 km/h 85 % 0 mm 0 W/m2
05:15 -12.4 °C -13.8 °C 33558.6 hPa WSW 41.4 km/h 69.8 km/h 85 % 0 mm 0 W/m2
05:20 -12.4 °C -13.8 °C 33545.1 hPa WSW 44.1 km/h 80.3 km/h 84 % 0 mm 0 W/m2
05:25 -12.4 °C -13.8 °C 33545.1 hPa WSW 46.7 km/h 59.5 km/h 84 % 0 mm 0 W/m2
05:30 -12.4 °C -13.8 °C 33558.6 hPa SW 33.6 km/h 38.8 km/h 84 % 0 mm 0 W/m2
05:35 -12.4 °C -13.7 °C 33558.6 hPa SW 28.5 km/h 57 km/h 85 % 0 mm 0 W/m2
05:40 -12.3 °C -13.7 °C 33558.6 hPa SW 33.6 km/h 57 km/h 85 % 0 mm 0 W/m2
05:45 -12.3 °C -13.7 °C 33558.6 hPa WSW 36.2 km/h 77.7 km/h 85 % 0 mm 0 W/m2
05:50 -12.3 °C -13.7 °C 33558.6 hPa WSW 41.4 km/h 72.6 km/h 85 % 0 mm 0 W/m2
05:55 -12.3 °C -13.6 °C 33558.6 hPa WSW 46.7 km/h 82.9 km/h 85 % 0 mm 0 W/m2
06:00 -12.2 °C -13.6 °C 33558.6 hPa WSW 46.7 km/h 59.5 km/h 85 % 0 mm 0 W/m2
06:05 -12.2 °C -13.6 °C 33568.8 hPa WSW 46.7 km/h 64.7 km/h 85 % 0 mm 0 W/m2
06:10 -12.2 °C -13.5 °C 33568.8 hPa WSW 44.1 km/h 88 km/h 85 % 0 mm 0 W/m2
06:15 -12.1 °C -13.6 °C 33568.8 hPa WSW 49.2 km/h 69.8 km/h 84 % 0 mm 0 W/m2
06:20 -12.2 °C -13.6 °C 33582.3 hPa WSW 51.8 km/h 90.6 km/h 84 % 0 mm 0 W/m2
06:25 -12.3 °C -13.7 °C 33568.8 hPa West 54.4 km/h 90.6 km/h 84 % 0 mm 0 W/m2
06:30 -12.3 °C -13.7 °C 33568.8 hPa WSW 59.5 km/h 77.7 km/h 84 % 0 mm 0 W/m2
06:35 -12.3 °C -13.7 °C 33568.8 hPa WSW 57 km/h 64.7 km/h 84 % 0 mm 0 W/m2
06:40 -12.3 °C -13.8 °C 33568.8 hPa WSW 51.8 km/h 80.3 km/h 84 % 0 mm 0 W/m2
06:45 -12.3 °C -13.7 °C 33568.8 hPa West 49.2 km/h 80.3 km/h 85 % 0 mm 0 W/m2
06:50 -12.3 °C -13.5 °C 33568.8 hPa West 51.8 km/h 80.3 km/h 86 % 0 mm 0 W/m2
06:55 -12.3 °C -13.5 °C 33568.8 hPa WSW 49.2 km/h 62.1 km/h 86 % 0 mm 0 W/m2
07:00 -12.3 °C -13.5 °C 33568.8 hPa WSW 44.1 km/h 75.2 km/h 86 % 0 mm 0 W/m2
07:05 -12.2 °C -13.4 °C 33582.3 hPa WSW 46.7 km/h 80.3 km/h 86 % 0 mm 0 W/m2
07:10 -12.2 °C -13.4 °C 33582.3 hPa WSW 51.8 km/h 72.6 km/h 86 % 0 mm 0 W/m2
07:15 -12.2 °C -13.5 °C 33592.5 hPa West 49.2 km/h 67.3 km/h 85 % 0 mm 0 W/m2
07:20 -12.2 °C -13.5 °C 33592.5 hPa West 46.7 km/h 75.2 km/h 85 % 0 mm 0 W/m2
07:25 -12.2 °C -13.5 °C 33592.5 hPa West 46.7 km/h 72.6 km/h 85 % 0 mm 0 W/m2
07:31 -12.2 °C -13.4 °C 33568.8 hPa West 50.7 km/h 50.7 km/h 86 % 0 mm 0.0 W/m2
07:36 -12.3 °C -13.5 °C 33582.3 hPa WSW 47.6 km/h 47.6 km/h 86 % 0 mm 0.0 W/m2
07:41 -12.3 °C -13.6 °C 33568.8 hPa WSW 50.7 km/h 50.7 km/h 86 % 0 mm 0.0 W/m2
07:46 -12.3 °C -13.6 °C 33582.3 hPa West 64.7 km/h 64.7 km/h 86 % 0 mm 0.0 W/m2
07:51 -12.3 °C -13.7 °C 33582.3 hPa West 50.7 km/h 50.7 km/h 85 % 0 mm 0.0 W/m2
07:56 -12.3 °C -13.7 °C 33582.3 hPa West 53.6 km/h 53.6 km/h 85 % 0 mm 9.0 W/m2
08:01 -12.3 °C -13.7 °C 33582.3 hPa WSW 50.7 km/h 50.7 km/h 85 % 0 mm 12.0 W/m2
08:06 -12.4 °C -13.8 °C 33582.3 hPa WSW 54.4 km/h 54.4 km/h 84 % 0 mm 16.0 W/m2
08:11 -12.4 °C -13.7 °C 33592.5 hPa WSW 62.6 km/h 62.6 km/h 85 % 0 mm 23.0 W/m2
08:16 -12.3 °C -13.7 °C 33582.3 hPa WSW 47.6 km/h 47.6 km/h 85 % 0 mm 14.0 W/m2
08:21 -12.3 °C -13.7 °C 33592.5 hPa West 89.3 km/h 89.3 km/h 85 % 0 mm 18.0 W/m2
08:26 -12.3 °C -13.7 °C 33592.5 hPa West 71.5 km/h 71.5 km/h 85 % 0 mm 16.0 W/m2
08:31 -12.3 °C -13.7 °C 33602.7 hPa West 50.7 km/h 50.7 km/h 85 % 0 mm 11.0 W/m2
08:36 -12.4 °C -13.7 °C 33602.7 hPa West 53.6 km/h 53.6 km/h 86 % 0 mm 9.0 W/m2
08:41 -12.4 °C -13.7 °C 33602.7 hPa West 47.6 km/h 47.6 km/h 86 % 0 mm 12.0 W/m2
08:46 -12.5 °C -13.7 °C 33602.7 hPa West 50.7 km/h 50.7 km/h 86 % 0 mm 11.0 W/m2
08:51 -12.4 °C -13.7 °C 33626.4 hPa West 36.2 km/h 59.5 km/h 86 % 0 mm 33 W/m2
08:56 -12.4 °C -13.6 °C 33616.2 hPa West 50.7 km/h 50.7 km/h 87 % 0 mm 33.0 W/m2
09:01 -12.4 °C -13.6 °C 33626.4 hPa West 38.8 km/h 62.1 km/h 87 % 0 mm 39 W/m2
09:06 -12.4 °C -13.6 °C 33626.4 hPa SW 119.1 km/h 119.1 km/h 87 % 0 mm 21.0 W/m2
09:11 -12.5 °C -13.7 °C 33626.4 hPa NW 38.8 km/h 38.8 km/h 87 % 0 mm 18.0 W/m2
09:16 -12.6 °C -13.6 °C 33639.9 hPa WNW 38.8 km/h 38.8 km/h 88 % 0 mm 25.0 W/m2
09:21 -12.6 °C -13.6 °C 33639.9 hPa WSW 44.1 km/h 44.1 km/h 88 % 0 mm 30.0 W/m2
09:26 -12.7 °C -13.6 °C 33639.9 hPa West 65.5 km/h 65.5 km/h 89 % 0 mm 30.0 W/m2
09:31 -12.7 °C -13.6 °C 33639.9 hPa West 54.4 km/h 54.4 km/h 90 % 0 mm 16.0 W/m2
09:36 -12.8 °C -13.7 °C 33660.2 hPa WSW 41.4 km/h 49.2 km/h 90 % 0 mm 11 W/m2
09:41 -12.9 °C -13.8 °C 33650.1 hPa West 53.6 km/h 53.6 km/h 90 % 0 mm 11.0 W/m2
09:46 -12.9 °C -13.8 °C 33650.1 hPa WSW 50.7 km/h 50.7 km/h 90 % 0 mm 11.0 W/m2
09:51 -12.9 °C -13.8 °C 33650.1 hPa WSW 44.7 km/h 44.7 km/h 90 % 0 mm 7.0 W/m2
09:56 -12.9 °C -13.8 °C 33660.2 hPa West 44.1 km/h 44.1 km/h 90 % 0 mm 9.0 W/m2
10:01 -12.9 °C -13.8 °C 33660.2 hPa WSW 51.8 km/h 51.8 km/h 90 % 0 mm 11.0 W/m2
10:06 -12.9 °C -13.8 °C 33683.9 hPa West 33.6 km/h 62.1 km/h 90 % 0 mm 12 W/m2
10:11 -12.8 °C -13.7 °C 33660.2 hPa West 46.7 km/h 46.7 km/h 90 % 0 mm 28.0 W/m2
10:16 -12.8 °C -13.7 °C 33673.8 hPa WSW 53.6 km/h 53.6 km/h 90 % 0 mm 46.0 W/m2
10:21 -12.7 °C -13.6 °C 33673.8 hPa West 49.2 km/h 49.2 km/h 90 % 0 mm 54.0 W/m2
10:26 -12.7 °C -13.6 °C 33673.8 hPa West 54.4 km/h 54.4 km/h 90 % 0 mm 54.0 W/m2
10:31 -12.8 °C -13.7 °C 33673.8 hPa West 51.8 km/h 51.8 km/h 90 % 0 mm 67.0 W/m2
10:36 -12.8 °C -13.7 °C 33673.8 hPa WSW 51.8 km/h 51.8 km/h 90 % 0 mm 113.0 W/m2
10:41 -12.8 °C -13.7 °C 33673.8 hPa WSW 38.8 km/h 38.8 km/h 90 % 0 mm 127.0 W/m2
10:46 -12.7 °C -13.6 °C 33673.8 hPa WSW 38.8 km/h 38.8 km/h 90 % 0 mm 105.0 W/m2
10:51 -12.8 °C -13.7 °C 33673.8 hPa WSW 38.8 km/h 38.8 km/h 90 % 0 mm 49.0 W/m2
10:56 -12.8 °C -13.7 °C 33683.9 hPa West 38.8 km/h 38.8 km/h 90 % 0 mm 88.0 W/m2
11:01 -12.8 °C -13.7 °C 33683.9 hPa WSW 49.2 km/h 49.2 km/h 90 % 0 mm 102.0 W/m2
11:06 -12.8 °C -13.7 °C 33683.9 hPa West 46.7 km/h 46.7 km/h 90 % 0 mm 84.0 W/m2
11:11 -12.8 °C -13.7 °C 33683.9 hPa West 44.7 km/h 44.7 km/h 90 % 0 mm 90.0 W/m2
11:16 -12.7 °C -13.7 °C 33683.9 hPa West 44.7 km/h 44.7 km/h 89 % 0 mm 104.0 W/m2
11:21 -12.7 °C -13.7 °C 33683.9 hPa WSW 49.2 km/h 49.2 km/h 89 % 0 mm 116.0 W/m2
11:26 -12.7 °C -13.7 °C 33683.9 hPa West 53.6 km/h 53.6 km/h 89 % 0 mm 116.0 W/m2
11:31 -12.7 °C -13.7 °C 33694.1 hPa WSW 50.7 km/h 50.7 km/h 89 % 0 mm 102.0 W/m2
11:36 -12.7 °C -13.7 °C 33694.1 hPa SW 38.8 km/h 38.8 km/h 88 % 0 mm 125.0 W/m2
11:41 -12.6 °C -13.7 °C 33707.6 hPa SW 50.7 km/h 50.7 km/h 88 % 0 mm 76.0 W/m2
11:46 -12.6 °C -13.7 °C 33707.6 hPa West 41.7 km/h 41.7 km/h 88 % 0 mm 40.0 W/m2
11:51 -12.6 °C -13.7 °C 33717.8 hPa WSW 35.7 km/h 35.7 km/h 88 % 0 mm 58.0 W/m2
11:56 -12.6 °C -13.7 °C 33717.8 hPa WSW 68.6 km/h 68.6 km/h 87 % 0 mm 42.0 W/m2
12:01 -12.6 °C -13.8 °C 33717.8 hPa WSW 51.8 km/h 51.8 km/h 87 % 0 mm 18.0 W/m2
12:06 -12.7 °C -13.8 °C 33731.3 hPa West 38.8 km/h 38.8 km/h 87 % 0 mm 21.0 W/m2
12:11 -12.7 °C -13.8 °C 33731.3 hPa WNW 47.6 km/h 47.6 km/h 88 % 0 mm 26.0 W/m2
12:16 -12.8 °C -13.9 °C 33731.3 hPa West 51.8 km/h 51.8 km/h 88 % 0 mm 33.0 W/m2
12:21 -12.8 °C -13.8 °C 33731.3 hPa WSW 51.8 km/h 51.8 km/h 89 % 0 mm 63.0 W/m2
12:26 -12.9 °C -13.9 °C 33731.3 hPa West 46.7 km/h 46.7 km/h 89 % 0 mm 49.0 W/m2
12:31 -12.9 °C -13.9 °C 33731.3 hPa WSW 47.6 km/h 47.6 km/h 89 % 0 mm 97.0 W/m2
12:36 -12.9 °C -13.8 °C 33741.5 hPa WSW 41.4 km/h 41.4 km/h 89 % 0 mm 104.0 W/m2
12:41 -12.9 °C -13.8 °C 33741.5 hPa West 44.7 km/h 44.7 km/h 89 % 0 mm 67.0 W/m2
12:46 -12.8 °C -13.8 °C 33741.5 hPa WSW 38.8 km/h 38.8 km/h 89 % 0 mm 91.0 W/m2
12:51 -12.8 °C -13.7 °C 33741.5 hPa WSW 44.7 km/h 44.7 km/h 89 % 0 mm 105.0 W/m2
12:56 -12.7 °C -13.7 °C 33751.6 hPa WSW 38.8 km/h 38.8 km/h 89 % 0 mm 79.0 W/m2
13:01 -12.7 °C -13.6 °C 33751.6 hPa WSW 26.9 km/h 26.9 km/h 89 % 0 mm 67.0 W/m2
13:06 -12.6 °C -13.6 °C 33751.6 hPa West 35.7 km/h 35.7 km/h 89 % 0 mm 86.0 W/m2
13:11 -12.6 °C -13.6 °C 33751.6 hPa WSW 41.4 km/h 41.4 km/h 88 % 0 mm 102.0 W/m2
13:16 -12.4 °C -13.5 °C 33765.2 hPa WSW 33.6 km/h 33.6 km/h 88 % 0 mm 88.0 W/m2
13:21 -12.4 °C -13.4 °C 33765.2 hPa WSW 36.2 km/h 36.2 km/h 88 % 0 mm 114.0 W/m2
13:26 -12.4 °C -13.4 °C 33765.2 hPa West 46.7 km/h 46.7 km/h 88 % 0 mm 153.0 W/m2
13:31 -12.3 °C -13.4 °C 33765.2 hPa WSW 44.7 km/h 44.7 km/h 87 % 0 mm 156.0 W/m2
13:36 -12.2 °C -13.4 °C 33765.2 hPa West 46.7 km/h 46.7 km/h 86 % 0 mm 227.0 W/m2
13:41 -12.1 °C -13.4 °C 33765.2 hPa WSW 46.7 km/h 46.7 km/h 86 % 0 mm 287.0 W/m2
13:46 -12.1 °C -13.4 °C 33765.2 hPa West 44.7 km/h 44.7 km/h 85 % 0 mm 265.0 W/m2
13:51 -12 °C -13.4 °C 33765.2 hPa West 44.7 km/h 44.7 km/h 84 % 0 mm 243.0 W/m2
13:56 -11.9 °C -13.4 °C 33788.9 hPa West 33.6 km/h 54.4 km/h 84 % 0 mm 244 W/m2
14:01 -11.9 °C -13.4 °C 33765.2 hPa West 44.7 km/h 44.7 km/h 84 % 0 mm 137.0 W/m2
14:06 -12 °C -13.4 °C 33775.4 hPa WSW 50.7 km/h 50.7 km/h 84 % 0 mm 183.0 W/m2
14:11 -12 °C -13.4 °C 33788.9 hPa West 33.6 km/h 49.2 km/h 84 % 0 mm 178 W/m2
14:16 -12 °C -13.4 °C 33775.4 hPa WSW 46.7 km/h 46.7 km/h 84 % 0 mm 220.0 W/m2
14:21 -12 °C -13.4 °C 33775.4 hPa West 38.8 km/h 38.8 km/h 84 % 0 mm 220.0 W/m2
14:26 -12 °C -13.4 °C 33775.4 hPa West 41.7 km/h 41.7 km/h 84 % 0 mm 207.0 W/m2
14:31 -11.9 °C -13.4 °C 33775.4 hPa West 29.8 km/h 29.8 km/h 84 % 0 mm 207.0 W/m2
14:36 -11.9 °C -13.4 °C 33788.9 hPa West 44.1 km/h 44.1 km/h 84 % 0 mm 223.0 W/m2
14:41 -11.9 °C -13.4 °C 33788.9 hPa WSW 46.7 km/h 46.7 km/h 83 % 0 mm 246.0 W/m2
14:46 -11.8 °C -13.4 °C 33799.1 hPa West 23.3 km/h 46.7 km/h 83 % 0 mm 236 W/m2
14:51 -11.8 °C -13.4 °C 33788.9 hPa West 31.1 km/h 31.1 km/h 83 % 0 mm 292.0 W/m2
14:56 -11.7 °C -13.3 °C 33788.9 hPa WSW 35.7 km/h 35.7 km/h 83 % 0 mm 353.0 W/m2
15:01 -11.6 °C -13.1 °C 33799.1 hPa WSW 23.3 km/h 28.5 km/h 83 % 0 mm 378 W/m2
15:06 -11.4 °C -13.1 °C 33788.9 hPa WSW 32.8 km/h 32.8 km/h 82 % 0 mm 290.0 W/m2
15:11 -11.5 °C -13.1 °C 33788.9 hPa West 41.7 km/h 41.7 km/h 82 % 0 mm 309.0 W/m2
15:16 -11.4 °C -13.1 °C 33788.9 hPa WSW 18.2 km/h 18.2 km/h 82 % 0 mm 297.0 W/m2
15:21 -11.3 °C -13.1 °C 33799.1 hPa West 12.9 km/h 33.6 km/h 81 % 0 mm 798 W/m2
15:26 -11.2 °C -12.9 °C 33788.9 hPa NW 35.7 km/h 35.7 km/h 81 % 0 mm 752.0 W/m2
15:31 -11.2 °C -13.2 °C 33788.9 hPa WNW 26.9 km/h 26.9 km/h 79 % 0 mm 251.0 W/m2
15:36 -11.3 °C -13.7 °C 33788.9 hPa WNW 29.8 km/h 29.8 km/h 75 % 0 mm 214.0 W/m2
15:41 -11.3 °C -13.8 °C 33799.1 hPa West 12.9 km/h 28.5 km/h 74 % 0 mm 306 W/m2
15:46 -11.4 °C -13.9 °C 33799.1 hPa West 15.6 km/h 31.1 km/h 74 % 0 mm 287 W/m2
15:51 -11.3 °C -13.8 °C 33788.9 hPa WNW 33.6 km/h 33.6 km/h 74 % 0 mm 260.0 W/m2
15:56 -11.3 °C -13.6 °C 33799.1 hPa West 15.6 km/h 23.3 km/h 76 % 0 mm 376 W/m2
16:01 -11.2 °C -13.6 °C 33788.9 hPa WNW 35.7 km/h 35.7 km/h 75 % 0 mm 378.0 W/m2
16:06 -11.2 °C -13.7 °C 33788.9 hPa NW 33.6 km/h 33.6 km/h 74 % 0 mm 371.0 W/m2
16:11 -11.2 °C -13.8 °C 33809.2 hPa WNW 15.6 km/h 46.7 km/h 73 % 0 mm 385 W/m2
16:16 -11.2 °C -13.8 °C 33788.9 hPa West 29.8 km/h 29.8 km/h 73 % 0 mm 374.0 W/m2
16:21 -11.2 °C -13.8 °C 33799.1 hPa West 35.7 km/h 35.7 km/h 72 % 0 mm 301.0 W/m2
16:26 -11.1 °C -13.8 °C 33809.2 hPa NW 15.6 km/h 28.5 km/h 72 % 0 mm 452 W/m2
16:31 -11.1 °C -13.8 °C 33799.1 hPa West 38.8 km/h 38.8 km/h 72 % 0 mm 214.0 W/m2
16:36 -11.3 °C -13.9 °C 33809.2 hPa WNW 18.2 km/h 33.6 km/h 73 % 0 mm 376 W/m2
16:41 -11.2 °C -13.7 °C 33809.2 hPa NW 20.8 km/h 44.1 km/h 74 % 0 mm 561 W/m2
16:46 -11.1 °C -13.6 °C 33809.2 hPa WNW 20.8 km/h 46.7 km/h 74 % 0 mm 165 W/m2
16:51 -11.1 °C -13.6 °C 33799.1 hPa NW 36.2 km/h 36.2 km/h 74 % 0 mm 178.0 W/m2
16:56 -11.2 °C -13.8 °C 33799.1 hPa NW 36.2 km/h 36.2 km/h 73 % 0 mm 139.0 W/m2
17:01 -11.3 °C -13.9 °C 33799.1 hPa WNW 41.7 km/h 41.7 km/h 73 % 0 mm 144.0 W/m2
17:06 -11.4 °C -14 °C 33799.1 hPa West 47.6 km/h 47.6 km/h 73 % 0 mm 132.0 W/m2
17:11 -11.6 °C -14.1 °C 33809.2 hPa NW 23.3 km/h 64.7 km/h 73 % 0 mm 116 W/m2
17:16 -11.8 °C -14.3 °C 33822.8 hPa WNW 25.9 km/h 51.8 km/h 73 % 0 mm 88 W/m2
17:21 -11.8 °C -14.4 °C 33832.9 hPa West 25.9 km/h 54.4 km/h 73 % 0 mm 83 W/m2
17:26 -11.9 °C -14.6 °C 33832.9 hPa West 28.5 km/h 80.3 km/h 72 % 0 mm 76 W/m2
17:27 -11.9 °C -14.8 °C 33832.9 hPa West 28.5 km/h 80.3 km/h 71 % 0 mm 69 W/m2
17:32 -12.1 °C -14.8 °C 33832.9 hPa West 36.2 km/h 77.7 km/h 71 % 0 mm 86 W/m2
17:37 -12.1 °C -14.9 °C 33832.9 hPa West 44.1 km/h 82.9 km/h 71 % 0 mm 125 W/m2
17:42 -12.1 °C -15.1 °C 33832.9 hPa WSW 44.1 km/h 67.3 km/h 70 % 0 mm 199 W/m2
17:47 -12.1 °C -15.1 °C 33832.9 hPa WSW 44.1 km/h 64.7 km/h 69 % 0 mm 137 W/m2
17:52 -12.1 °C -15.1 °C 33832.9 hPa WSW 38.8 km/h 57 km/h 69 % 0 mm 105 W/m2
17:57 -12.2 °C -15.2 °C 33832.9 hPa West 36.2 km/h 62.1 km/h 69 % 0 mm 72 W/m2
18:02 -12.3 °C -15.2 °C 33843.1 hPa West 36.2 km/h 59.5 km/h 70 % 0 mm 46 W/m2
18:07 -12.3 °C -15.1 °C 33843.1 hPa West 33.6 km/h 67.3 km/h 71 % 0 mm 39 W/m2
18:12 -12.6 °C -14.8 °C 33843.1 hPa WNW 28.5 km/h 49.2 km/h 76 % 0 mm 14 W/m2
18:17 -12.7 °C -14.7 °C 33856.6 hPa WNW 23.3 km/h 33.6 km/h 78 % 0 mm 11 W/m2
18:22 -12.9 °C -14.8 °C 33843.1 hPa West 18.2 km/h 49.2 km/h 79 % 0 mm 30 W/m2
18:27 -13.1 °C -14.9 °C 33856.6 hPa WSW 20.8 km/h 41.4 km/h 80 % 0 mm 58 W/m2
18:32 -13.2 °C -14.9 °C 33843.1 hPa WSW 28.5 km/h 38.8 km/h 81 % 0 mm 127 W/m2
18:37 -13.2 °C -14.8 °C 33856.6 hPa WSW 25.9 km/h 49.2 km/h 82 % 0 mm 155 W/m2
18:42 -13 °C -14.5 °C 33856.6 hPa WSW 25.9 km/h 38.8 km/h 83 % 0 mm 130 W/m2
18:48 -12.9 °C -14.6 °C 33843.1 hPa WSW 25.9 km/h 46.7 km/h 82 % 0 mm 93 W/m2
18:52 -13 °C -14.7 °C 33843.1 hPa WSW 25.9 km/h 33.6 km/h 81 % 0 mm 42 W/m2
18:57 -13 °C -14.7 °C 33856.6 hPa SW 23.3 km/h 25.9 km/h 81 % 0 mm 23 W/m2
19:03 -13.1 °C -14.8 °C 33856.6 hPa SW 18.2 km/h 31.1 km/h 81 % 0 mm 14 W/m2
19:08 -13.1 °C -14.7 °C 33856.6 hPa WSW 20.8 km/h 41.4 km/h 82 % 0 mm 11 W/m2
19:13 -13.1 °C -14.7 °C 33856.6 hPa WSW 23.3 km/h 44.1 km/h 82 % 0 mm 9 W/m2
19:18 -13 °C -14.6 °C 33856.6 hPa WSW 25.9 km/h 54.4 km/h 82 % 0 mm 9 W/m2
19:23 -13 °C -14.7 °C 33866.8 hPa SW 23.3 km/h 36.2 km/h 81 % 0 mm 7 W/m2
19:28 -12.9 °C -14.7 °C 33866.8 hPa WSW 23.3 km/h 41.4 km/h 81 % 0 mm 5 W/m2
19:33 -12.9 °C -14.7 °C 33866.8 hPa SW 23.3 km/h 49.2 km/h 81 % 0 mm 0 W/m2
19:38 -12.9 °C -14.6 °C 33880.3 hPa SW 25.9 km/h 38.8 km/h 81 % 0 mm 0 W/m2
19:43 -12.8 °C -14.6 °C 33880.3 hPa WSW 23.3 km/h 54.4 km/h 81 % 0 mm 0 W/m2
19:48 -12.8 °C -14.6 °C 33856.6 hPa West 77.7 km/h 77.7 km/h 81 % 0 mm 0.0 W/m2
19:53 -12.8 °C -14.6 °C 33880.3 hPa West 38.8 km/h 62.1 km/h 81 % 0 mm 0 W/m2
19:58 -12.8 °C -14.7 °C 33880.3 hPa West 41.4 km/h 46.7 km/h 80 % 0 mm 0 W/m2
20:03 -12.9 °C -14.7 °C 33880.3 hPa WSW 33.6 km/h 44.1 km/h 80 % 0 mm 0 W/m2
20:08 -12.9 °C -14.7 °C 33880.3 hPa WSW 31.1 km/h 62.1 km/h 80 % 0 mm 0 W/m2
20:13 -12.9 °C -14.7 °C 33890.5 hPa WSW 36.2 km/h 49.2 km/h 80 % 0 mm 0 W/m2
20:18 -12.9 °C -14.7 °C 33890.5 hPa WSW 36.2 km/h 44.1 km/h 80 % 0 mm 0 W/m2
20:23 -12.9 °C -14.7 °C 33890.5 hPa WSW 33.6 km/h 49.2 km/h 80 % 0 mm 0 W/m2
20:28 -12.9 °C -14.8 °C 33890.5 hPa SW 31.1 km/h 46.7 km/h 80 % 0 mm 0 W/m2
20:33 -12.9 °C -14.8 °C 33890.5 hPa WSW 31.1 km/h 57 km/h 80 % 0 mm 0 W/m2
20:38 -12.9 °C -14.8 °C 33890.5 hPa SW 33.6 km/h 51.8 km/h 80 % 0 mm 0 W/m2
20:43 -12.9 °C -14.8 °C 33890.5 hPa WSW 36.2 km/h 54.4 km/h 80 % 0 mm 0 W/m2
20:48 -12.9 °C -14.8 °C 33890.5 hPa WSW 36.2 km/h 64.7 km/h 79 % 0 mm 0 W/m2
20:53 -12.9 °C -14.8 °C 33890.5 hPa WSW 36.2 km/h 54.4 km/h 79 % 0 mm 0 W/m2
20:58 -12.9 °C -14.8 °C 33880.3 hPa SW 57 km/h 57 km/h 79 % 0 mm 0.0 W/m2
21:03 -12.8 °C -14.8 °C 33900.6 hPa WSW 38.8 km/h 59.5 km/h 79 % 0 mm 0 W/m2
21:08 -12.8 °C -14.7 °C 33900.6 hPa WSW 36.2 km/h 54.4 km/h 79 % 0 mm 0 W/m2
21:13 -12.8 °C -14.7 °C 33900.6 hPa WSW 33.6 km/h 59.5 km/h 80 % 0 mm 0 W/m2
21:18 -13.1 °C -14.8 °C 33914.2 hPa West 41.4 km/h 98.3 km/h 81 % 0 mm 0 W/m2
21:23 -13.3 °C -14.9 °C 33880.3 hPa SSW 71.5 km/h 71.5 km/h 82 % 0 mm 0.0 W/m2
21:28 -13.4 °C -15.1 °C 33890.5 hPa West 50.7 km/h 50.7 km/h 82 % 0 mm 0.0 W/m2
21:33 -13.4 °C -15.1 °C 33914.2 hPa WSW 38.8 km/h 64.7 km/h 82 % 0 mm 0 W/m2
21:38 -13.4 °C -15 °C 33914.2 hPa WSW 41.4 km/h 64.7 km/h 82 % 0 mm 0 W/m2
21:43 -13.4 °C -14.9 °C 33900.6 hPa WSW 89.3 km/h 89.3 km/h 83 % 0 mm 0.0 W/m2
21:48 -13.6 °C -15.1 °C 33914.2 hPa WSW 51.8 km/h 69.8 km/h 83 % 0 mm 0 W/m2
21:53 -13.7 °C -15.1 °C 33914.2 hPa WSW 49.2 km/h 57 km/h 84 % 0 mm 0 W/m2
21:58 -13.8 °C -15.2 °C 33914.2 hPa WSW 36.2 km/h 36.2 km/h 84 % 0 mm 0 W/m2
22:03 -13.8 °C -15.1 °C 33914.2 hPa WSW 28.5 km/h 49.2 km/h 85 % 0 mm 0 W/m2
22:08 -13.8 °C -15.1 °C 33914.2 hPa WSW 28.5 km/h 46.7 km/h 85 % 0 mm 0 W/m2
22:13 -13.8 °C -15.2 °C 33900.6 hPa SSW 46.7 km/h 46.7 km/h 84 % 0 mm 0.0 W/m2
22:18 -13.8 °C -15.1 °C 33900.6 hPa SW 41.7 km/h 41.7 km/h 85 % 0 mm 0.0 W/m2
22:23 -13.8 °C -15.2 °C 33900.6 hPa SW 41.7 km/h 41.7 km/h 85 % 0 mm 0.0 W/m2
22:28 -13.8 °C -15.2 °C 33900.6 hPa SSW 38.8 km/h 38.8 km/h 85 % 0 mm 0.0 W/m2
22:33 -13.9 °C -15.2 °C 33914.2 hPa SW 25.9 km/h 38.8 km/h 85 % 0 mm 0 W/m2
22:38 -13.9 °C -15.1 °C 33914.2 hPa SW 23.3 km/h 38.8 km/h 86 % 0 mm 0 W/m2
22:43 -13.9 °C -15.1 °C 33914.2 hPa WSW 23.3 km/h 44.1 km/h 86 % 0 mm 0 W/m2
22:48 -13.8 °C -15.1 °C 33914.2 hPa WSW 23.3 km/h 36.2 km/h 86 % 0 mm 0 W/m2
22:53 -13.8 °C -15 °C 33914.2 hPa WSW 28.5 km/h 54.4 km/h 86 % 0 mm 0 W/m2
22:58 -13.8 °C -15.1 °C 33914.2 hPa WSW 28.5 km/h 46.7 km/h 85 % 0 mm 0 W/m2
23:03 -13.7 °C -14.9 °C 33924.3 hPa West 33.6 km/h 54.4 km/h 85 % 0 mm 0 W/m2
23:08 -13.6 °C -14.9 °C 33900.6 hPa West 77.7 km/h 77.7 km/h 84 % 0 mm 0.0 W/m2
23:13 -13.4 °C -14.9 °C 33900.6 hPa West 64.7 km/h 64.7 km/h 83 % 0 mm 0.0 W/m2
23:18 -13.5 °C -15 °C 33900.6 hPa West 56.6 km/h 56.6 km/h 83 % 0 mm 0.0 W/m2
23:23 -13.6 °C -15.1 °C 33900.6 hPa WSW 65.5 km/h 65.5 km/h 83 % 0 mm 0.0 W/m2
23:28 -13.5 °C -15.2 °C 33924.3 hPa West 41.4 km/h 69.8 km/h 81 % 0 mm 0 W/m2
23:33 -13.5 °C -15.2 °C 33937.9 hPa West 46.7 km/h 95.8 km/h 81 % 0 mm 0 W/m2
23:38 -13.7 °C -15.2 °C 33914.2 hPa West 53.6 km/h 53.6 km/h 83 % 0 mm 0.0 W/m2
23:43 -13.8 °C -15.2 °C 33900.6 hPa West 44.1 km/h 44.1 km/h 84 % 0 mm 0.0 W/m2
23:48 -13.8 °C -15.2 °C 33900.6 hPa West 38.8 km/h 38.8 km/h 84 % 0 mm 0.0 W/m2
23:53 -13.8 °C -15.2 °C 33924.3 hPa WSW 28.5 km/h 28.5 km/h 84 % 0 mm 0 W/m2
23:58 -13.9 °C -15.3 °C 33924.3 hPa WSW 23.3 km/h 41.4 km/h 84 % 0 mm 0 W/m2
Meteocoruña
Agradecimientos a Weather Underground - 3 mb